TimeEDT,TemperatureF,Dew PointF,Humidity,Sea Level PressureIn,VisibilityMPH,Wind Direction,Wind SpeedMPH,Gust SpeedMPH,PrecipitationIn,Events,Conditions,WindDirDegrees,DateUTC
12:15 AM,46.4,42.8,87,30.12,10.0,Calm,Calm,-,N/A,,Clear,0,2013-09-30 04:15:00
12:35 AM,46.4,42.8,87,30.12,10.0,Calm,Calm,-,N/A,,Clear,0,2013-09-30 04:35:00
12:55 AM,44.6,41.0,87,30.12,10.0,Calm,Calm,-,N/A,,Clear,0,2013-09-30 04:55:00
1:15 AM,44.6,41.0,87,30.12,10.0,Calm,Calm,-,N/A,,Clear,0,2013-09-30 05:15:00
1:35 AM,44.6,39.2,81,30.11,10.0,Calm,Calm,-,N/A,,Clear,0,2013-09-30 05:35:00
1:55 AM,44.6,39.2,81,30.11,10.0,SW,3.5,-,N/A,,Clear,230,2013-09-30 05:55:00
2:15 AM,44.6,39.2,81,30.10,10.0,Calm,Calm,-,N/A,,Clear,0,2013-09-30 06:15:00
2:35 AM,42.8,39.2,87,30.10,10.0,Calm,Calm,-,N/A,,Clear,0,2013-09-30 06:35:00
2:55 AM,44.6,39.2,81,30.09,10.0,Calm,Calm,-,N/A,,Clear,0,2013-09-30 06:55:00
3:15 AM,44.6,39.2,81,30.08,10.0,Calm,Calm,-,N/A,,Mostly Cloudy,0,2013-09-30 07:15:00
3:35 AM,44.6,39.2,81,30.08,9.0,SW,4.6,-,N/A,,Overcast,220,2013-09-30 07:35:00
3:55 AM,46.4,44.6,93,30.08,0.2,WSW,5.8,-,N/A,,Overcast,240,2013-09-30 07:55:00
4:15 AM,44.6,42.8,93,30.08,0.2,WSW,4.6,-,N/A,,Overcast,240,2013-09-30 08:15:00
4:35 AM,44.6,42.8,93,30.08,1.0,SSW,4.6,-,N/A,,Overcast,210,2013-09-30 08:35:00
4:55 AM,42.8,39.2,87,30.08,10.0,SW,4.6,-,N/A,,Overcast,220,2013-09-30 08:55:00
5:15 AM,44.6,42.8,93,30.08,0.2,SW,3.5,-,N/A,,Overcast,220,2013-09-30 09:15:00
5:35 AM,46.4,42.8,87,30.09,0.2,WSW,4.6,-,N/A,,Overcast,240,2013-09-30 09:35:00
5:55 AM,44.6,42.8,93,30.09,0.2,SW,8.1,-,N/A,,Overcast,230,2013-09-30 09:55:00
6:15 AM,44.6,42.8,93,30.09,0.2,SW,4.6,-,N/A,,Overcast,230,2013-09-30 10:15:00
6:35 AM,44.6,42.8,93,30.09,0.2,West,3.5,-,N/A,,Overcast,260,2013-09-30 10:35:00
6:55 AM,44.6,41.0,87,30.10,0.8,SSW,3.5,-,N/A,,Overcast,200,2013-09-30 10:55:00
7:15 AM,44.6,42.8,93,30.10,0.2,Calm,Calm,-,N/A,,Overcast,0,2013-09-30 11:15:00
7:35 AM,46.4,42.8,87,30.09,0.2,Calm,Calm,-,N/A,,Overcast,0,2013-09-30 11:35:00
7:55 AM,46.4,44.6,93,30.10,0.2,South,3.5,-,N/A,,Overcast,190,2013-09-30 11:55:00
8:15 AM,46.4,44.6,93,30.09,0.2,West,3.5,-,N/A,,Overcast,260,2013-09-30 12:15:00
8:35 AM,46.4,44.6,93,30.09,0.5,WSW,5.8,-,N/A,,Overcast,240,2013-09-30 12:35:00
8:55 AM,46.4,44.6,93,30.09,0.2,West,3.5,-,N/A,,Overcast,260,2013-09-30 12:55:00
9:15 AM,48.2,46.4,93,30.09,4.0,West,4.6,-,N/A,,Overcast,270,2013-09-30 13:15:00
9:35 AM,48.2,46.4,93,30.08,10.0,West,3.5,-,N/A,,Mostly Cloudy,270,2013-09-30 13:35:00
9:55 AM,51.8,48.2,88,30.08,10.0,Calm,Calm,-,N/A,,Clear,0,2013-09-30 13:55:00
10:15 AM,53.6,46.4,77,30.07,10.0,Calm,Calm,-,N/A,,Clear,0,2013-09-30 14:15:00
10:35 AM,57.2,48.2,72,30.06,10.0,Calm,Calm,-,N/A,,Clear,0,2013-09-30 14:35:00
10:55 AM,57.2,48.2,72,30.06,10.0,East,4.6,-,N/A,,Clear,80,2013-09-30 14:55:00
11:15 AM,57.2,48.2,72,30.05,10.0,East,3.5,-,N/A,,Clear,80,2013-09-30 15:15:00
11:35 AM,62.6,48.2,59,30.04,10.0,Calm,Calm,-,N/A,,Clear,0,2013-09-30 15:35:00
11:55 AM,62.6,50.0,63,30.04,10.0,East,4.6,-,N/A,,Clear,80,2013-09-30 15:55:00
12:15 PM,62.6,50.0,63,30.03,10.0,NE,4.6,-,N/A,,Clear,50,2013-09-30 16:15:00
12:35 PM,62.6,48.2,59,30.03,10.0,NE,5.8,-,N/A,,Clear,50,2013-09-30 16:35:00
12:55 PM,64.4,48.2,56,30.03,10.0,ENE,4.6,-,N/A,,Clear,60,2013-09-30 16:55:00
1:15 PM,64.4,48.2,56,30.02,10.0,Calm,Calm,-,N/A,,Clear,0,2013-09-30 17:15:00
1:35 PM,66.2,48.2,52,30.02,9.0,East,3.5,-,N/A,,Clear,100,2013-09-30 17:35:00
1:55 PM,66.2,48.2,52,30.01,10.0,ENE,5.8,-,N/A,,Clear,70,2013-09-30 17:55:00
2:15 PM,66.2,50.0,56,30.00,10.0,East,5.8,-,N/A,,Clear,80,2013-09-30 18:15:00
2:35 PM,68.0,48.2,49,29.99,10.0,East,8.1,-,N/A,,Clear,100,2013-09-30 18:35:00
2:55 PM,68.0,50.0,52,29.99,5.0,East,8.1,-,N/A,,Clear,100,2013-09-30 18:55:00
3:15 PM,68.0,48.2,49,29.99,10.0,East,6.9,-,N/A,,Clear,100,2013-09-30 19:15:00
3:35 PM,68.0,48.2,49,29.98,10.0,ENE,4.6,-,N/A,,Clear,70,2013-09-30 19:35:00
3:55 PM,68.0,48.2,49,29.98,10.0,East,5.8,-,N/A,,Clear,90,2013-09-30 19:55:00
4:15 PM,68.0,48.2,49,29.97,10.0,East,3.5,-,N/A,,Clear,80,2013-09-30 20:15:00
4:35 PM,68.0,46.4,46,29.97,10.0,East,5.8,-,N/A,,Clear,80,2013-09-30 20:35:00
4:55 PM,68.0,46.4,46,29.97,10.0,East,4.6,-,N/A,,Clear,90,2013-09-30 20:55:00
5:15 PM,66.2,46.4,49,29.97,10.0,Calm,Calm,-,N/A,,Clear,0,2013-09-30 21:15:00
5:35 PM,64.4,51.8,64,29.97,10.0,Calm,Calm,-,N/A,,Clear,0,2013-09-30 21:35:00
5:55 PM,64.4,51.8,64,29.97,10.0,Calm,Calm,-,N/A,,Clear,0,2013-09-30 21:55:00
6:15 PM,62.6,51.8,68,29.97,10.0,Calm,Calm,-,N/A,,Clear,0,2013-09-30 22:15:00
6:35 PM,59.0,51.8,77,29.98,10.0,Calm,Calm,-,N/A,,Clear,0,2013-09-30 22:35:00
6:55 PM,57.2,50.0,77,29.98,10.0,Calm,Calm,-,N/A,,Clear,0,2013-09-30 22:55:00
7:15 PM,55.4,50.0,82,29.98,10.0,Calm,Calm,-,N/A,,Clear,0,2013-09-30 23:15:00
7:35 PM,55.4,50.0,82,29.98,10.0,Calm,Calm,-,N/A,,Clear,0,2013-09-30 23:35:00
7:55 PM,55.4,50.0,82,29.98,10.0,Calm,Calm,-,N/A,,Clear,0,2013-09-30 23:55:00
8:15 PM,53.6,48.2,82,29.98,10.0,Calm,Calm,-,N/A,,Clear,0,2013-10-01 00:15:00
8:35 PM,53.6,48.2,82,29.98,10.0,Calm,Calm,-,N/A,,Clear,0,2013-10-01 00:35:00
8:55 PM,53.6,48.2,82,29.98,10.0,Calm,Calm,-,N/A,,Clear,0,2013-10-01 00:55:00
9:15 PM,51.8,46.4,82,29.98,10.0,Calm,Calm,-,N/A,,Clear,0,2013-10-01 01:15:00
9:35 PM,51.8,46.4,82,29.98,10.0,Calm,Calm,-,N/A,,Clear,0,2013-10-01 01:35:00
9:55 PM,51.8,46.4,82,29.98,10.0,Calm,Calm,-,N/A,,Clear,0,2013-10-01 01:55:00
10:15 PM,51.8,46.4,82,29.98,10.0,Calm,Calm,-,N/A,,Clear,0,2013-10-01 02:15:00
10:35 PM,50.0,46.4,87,29.98,10.0,Calm,Calm,-,N/A,,Clear,0,2013-10-01 02:35:00
10:55 PM,48.2,46.4,93,29.98,10.0,Calm,Calm,-,N/A,,Clear,0,2013-10-01 02:55:00
11:15 PM,50.0,46.4,87,29.98,10.0,Calm,Calm,-,N/A,,Clear,0,2013-10-01 03:15:00
11:35 PM,48.2,46.4,93,29.97,10.0,Calm,Calm,-,N/A,,Clear,0,2013-10-01 03:35:00
11:55 PM,48.2,44.6,87,29.97,10.0,Calm,Calm,-,N/A,,Scattered Clouds,0,2013-10-01 03:55:00